CheckWX is a tool to help pilots better visualize weather data.  It is not intended as a substitute for an official pre-flight weather briefing.

22:09:58 UTC

CYQK TAF
Kenora Airport
Kenora, Canada
TAF CYQK 201940Z 2020/2108 02008KT P6SM BKN025 TEMPO 2020/2024 OVC020 FM210000 VRB03KT P6SM SCT025 TEMPO 2100/2102 BKN020 FM210400 22008KT P6SM SKC PROB30 2106/2108 3/4SM BR RMK NXT FCST BY 210200Z

Mar-20@
20:00 UTC

Mar-20 @ 20:00 UTC

Mar-21@
00:00 UTC

Mar-21 @ 00:00 UTC

TAF CYQK 201940Z 2020/2108 02008KT P6SM BKN025
Wind
  • 020° at 8 KTS
Cloud Levels
  • Broken at 2,500' AGL

Mar-20@
20:00 UTC

Mar-20 @ 20:00 UTC

Mar-21@
00:00 UTC

Mar-21 @ 00:00 UTC

TEMPO 2020/2024 OVC020

Temporary

Temporary Changes expected for less than half the time period

Cloud Levels
  • Overcast at 2,000' AGL

Mar-21@
00:00 UTC

Mar-21 @ 00:00 UTC

Mar-21@
02:00 UTC

Mar-21 @ 02:00 UTC

TEMPO 2100/2102 BKN020

Temporary

Temporary Changes expected for less than half the time period

Cloud Levels
  • Broken at 2,000' AGL

Mar-21@
00:00 UTC

Mar-21 @ 00:00 UTC

Mar-21@
04:00 UTC

Mar-21 @ 04:00 UTC

FM210000 VRB03KT P6SM SCT025

From

From Standard forecast or significant change

Wind
  • Variable at 3 KTS
Cloud Levels
  • Scattered at 2,500' AGL

Mar-21@
04:00 UTC

Mar-21 @ 04:00 UTC

Mar-21@
08:00 UTC

Mar-21 @ 08:00 UTC

FM210400 22008KT P6SM SKC

From

From Standard forecast or significant change

Wind
  • 220° at 8 KTS
Cloud Levels
  • Clear skies

Mar-21@
06:00 UTC

Mar-21 @ 06:00 UTC

Mar-21@
08:00 UTC

Mar-21 @ 08:00 UTC

PROB30 2106/2108 3/4SM BR RMK NXT FCST BY 210200Z

Probable - 30% Likelihood

Probable - 30% Likelihood during this time.

Conditions
Mist